sensor_id;sensor_type;location;lat;lon;timestamp;temperature;humidity
23507;DHT22;11930;53.076;18.250;2023-03-23T00:01:08;10.00;99.90
23507;DHT22;11930;53.076;18.250;2023-03-23T00:03:39;10.00;99.90
23507;DHT22;11930;53.076;18.250;2023-03-23T00:06:07;10.10;99.90
23507;DHT22;11930;53.076;18.250;2023-03-23T00:08:36;10.10;99.90
23507;DHT22;11930;53.076;18.250;2023-03-23T00:11:15;10.00;99.90
23507;DHT22;11930;53.076;18.250;2023-03-23T00:13:42;10.10;99.90
23507;DHT22;11930;53.076;18.250;2023-03-23T00:16:10;10.10;99.90
23507;DHT22;11930;53.076;18.250;2023-03-23T00:18:50;10.10;99.90
23507;DHT22;11930;53.076;18.250;2023-03-23T00:21:21;10.00;99.90
23507;DHT22;11930;53.076;18.250;2023-03-23T00:24:09;10.00;99.90
23507;DHT22;11930;53.076;18.250;2023-03-23T00:26:38;10.00;99.90
23507;DHT22;11930;53.076;18.250;2023-03-23T00:31:44;9.90;99.90
23507;DHT22;11930;53.076;18.250;2023-03-23T00:34:15;9.90;99.90
23507;DHT22;11930;53.076;18.250;2023-03-23T00:36:49;9.90;99.90
23507;DHT22;11930;53.076;18.250;2023-03-23T00:39:16;9.80;99.90
23507;DHT22;11930;53.076;18.250;2023-03-23T00:41:44;9.70;99.90
23507;DHT22;11930;53.076;18.250;2023-03-23T00:44:11;9.70;99.90
23507;DHT22;11930;53.076;18.250;2023-03-23T00:46:46;9.70;99.90
23507;DHT22;11930;53.076;18.250;2023-03-23T00:49:16;9.60;99.90
23507;DHT22;11930;53.076;18.250;2023-03-23T00:51:43;9.60;99.90
23507;DHT22;11930;53.076;18.250;2023-03-23T00:54:09;9.50;99.90
23507;DHT22;11930;53.076;18.250;2023-03-23T00:56:36;9.50;99.90
23507;DHT22;11930;53.076;18.250;2023-03-23T00:59:03;9.50;99.90
23507;DHT22;11930;53.076;18.250;2023-03-23T01:01:29;9.50;99.90
23507;DHT22;11930;53.076;18.250;2023-03-23T01:03:58;9.40;99.90
23507;DHT22;11930;53.076;18.250;2023-03-23T01:06:35;9.40;99.90
23507;DHT22;11930;53.076;18.250;2023-03-23T01:09:13;9.40;99.90
23507;DHT22;11930;53.076;18.250;2023-03-23T01:11:46;9.40;99.90
23507;DHT22;11930;53.076;18.250;2023-03-23T01:14:14;9.40;99.90
23507;DHT22;11930;53.076;18.250;2023-03-23T01:16:41;9.50;99.90
23507;DHT22;11930;53.076;18.250;2023-03-23T01:19:07;9.50;99.90
23507;DHT22;11930;53.076;18.250;2023-03-23T01:21:34;9.50;99.90
23507;DHT22;11930;53.076;18.250;2023-03-23T01:23:59;9.50;99.90
23507;DHT22;11930;53.076;18.250;2023-03-23T01:26:27;9.60;99.90
23507;DHT22;11930;53.076;18.250;2023-03-23T01:28:55;9.70;99.90
23507;DHT22;11930;53.076;18.250;2023-03-23T01:31:23;9.80;99.90
23507;DHT22;11930;53.076;18.250;2023-03-23T01:33:50;9.90;99.90
23507;DHT22;11930;53.076;18.250;2023-03-23T01:36:26;9.90;99.90
23507;DHT22;11930;53.076;18.250;2023-03-23T01:38:56;9.90;99.90
23507;DHT22;11930;53.076;18.250;2023-03-23T01:41:24;9.90;99.90
23507;DHT22;11930;53.076;18.250;2023-03-23T01:44:06;9.80;99.90
23507;DHT22;11930;53.076;18.250;2023-03-23T01:46:43;9.70;99.90
23507;DHT22;11930;53.076;18.250;2023-03-23T01:49:17;9.70;99.90
23507;DHT22;11930;53.076;18.250;2023-03-23T01:52:07;9.60;99.90
23507;DHT22;11930;53.076;18.250;2023-03-23T01:54:36;9.50;99.90
23507;DHT22;11930;53.076;18.250;2023-03-23T01:57:07;9.40;99.90
23507;DHT22;11930;53.076;18.250;2023-03-23T01:59:36;9.40;99.90
23507;DHT22;11930;53.076;18.250;2023-03-23T02:02:24;9.30;99.90
23507;DHT22;11930;53.076;18.250;2023-03-23T02:04:51;9.30;99.90
23507;DHT22;11930;53.076;18.250;2023-03-23T02:07:22;9.20;99.90
23507;DHT22;11930;53.076;18.250;2023-03-23T02:09:51;9.20;99.90
23507;DHT22;11930;53.076;18.250;2023-03-23T02:12:18;9.10;99.90
23507;DHT22;11930;53.076;18.250;2023-03-23T02:14:46;9.00;99.90
23507;DHT22;11930;53.076;18.250;2023-03-23T02:35:56;8.20;99.90
23507;DHT22;11930;53.076;18.250;2023-03-23T02:38:30;8.10;99.90
23507;DHT22;11930;53.076;18.250;2023-03-23T02:40:59;8.10;99.90
23507;DHT22;11930;53.076;18.250;2023-03-23T02:43:31;8.10;99.90
23507;DHT22;11930;53.076;18.250;2023-03-23T02:45:58;8.10;99.90
23507;DHT22;11930;53.076;18.250;2023-03-23T02:48:29;8.10;99.90
23507;DHT22;11930;53.076;18.250;2023-03-23T02:50:56;8.10;99.90
23507;DHT22;11930;53.076;18.250;2023-03-23T02:53:26;8.10;99.90
23507;DHT22;11930;53.076;18.250;2023-03-23T02:55:56;8.20;99.90
23507;DHT22;11930;53.076;18.250;2023-03-23T02:58:27;8.20;99.90
23507;DHT22;11930;53.076;18.250;2023-03-23T03:00:54;8.20;99.90
23507;DHT22;11930;53.076;18.250;2023-03-23T03:03:26;8.20;99.90
23507;DHT22;11930;53.076;18.250;2023-03-23T03:06:11;8.30;99.90
23507;DHT22;11930;53.076;18.250;2023-03-23T03:11:14;8.40;99.90
23507;DHT22;11930;53.076;18.250;2023-03-23T03:21:36;8.50;99.90
23507;DHT22;11930;53.076;18.250;2023-03-23T03:24:05;8.50;99.90
23507;DHT22;11930;53.076;18.250;2023-03-23T03:26:42;8.50;99.90
23507;DHT22;11930;53.076;18.250;2023-03-23T03:29:35;8.50;99.90
23507;DHT22;11930;53.076;18.250;2023-03-23T03:32:05;8.50;99.90
23507;DHT22;11930;53.076;18.250;2023-03-23T03:34:34;8.50;99.90
23507;DHT22;11930;53.076;18.250;2023-03-23T03:37:02;8.50;99.90
23507;DHT22;11930;53.076;18.250;2023-03-23T03:39:35;8.40;99.90
23507;DHT22;11930;53.076;18.250;2023-03-23T03:42:04;8.40;99.90
23507;DHT22;11930;53.076;18.250;2023-03-23T03:44:33;8.40;99.90
23507;DHT22;11930;53.076;18.250;2023-03-23T03:47:00;8.40;99.90
23507;DHT22;11930;53.076;18.250;2023-03-23T03:49:27;8.40;99.90
23507;DHT22;11930;53.076;18.250;2023-03-23T03:51:54;8.40;99.90
23507;DHT22;11930;53.076;18.250;2023-03-23T03:54:25;8.50;99.90
23507;DHT22;11930;53.076;18.250;2023-03-23T03:56:52;8.50;99.90
23507;DHT22;11930;53.076;18.250;2023-03-23T03:59:41;8.50;99.90
23507;DHT22;11930;53.076;18.250;2023-03-23T04:02:10;8.60;99.90
23507;DHT22;11930;53.076;18.250;2023-03-23T04:04:40;8.60;99.90
23507;DHT22;11930;53.076;18.250;2023-03-23T04:07:07;8.60;99.90
23507;DHT22;11930;53.076;18.250;2023-03-23T04:09:37;8.60;99.90
23507;DHT22;11930;53.076;18.250;2023-03-23T04:12:04;8.60;99.90
23507;DHT22;11930;53.076;18.250;2023-03-23T04:15:07;8.60;99.90
23507;DHT22;11930;53.076;18.250;2023-03-23T04:17:35;8.50;99.90
23507;DHT22;11930;53.076;18.250;2023-03-23T04:20:04;8.50;99.90
23507;DHT22;11930;53.076;18.250;2023-03-23T04:22:39;8.50;99.90
23507;DHT22;11930;53.076;18.250;2023-03-23T04:25:11;8.40;99.90
23507;DHT22;11930;53.076;18.250;2023-03-23T04:27:39;8.40;99.90
23507;DHT22;11930;53.076;18.250;2023-03-23T04:30:11;8.30;99.90
23507;DHT22;11930;53.076;18.250;2023-03-23T04:32:41;8.40;99.90
23507;DHT22;11930;53.076;18.250;2023-03-23T04:35:13;8.40;99.90
23507;DHT22;11930;53.076;18.250;2023-03-23T04:37:46;8.30;99.90
23507;DHT22;11930;53.076;18.250;2023-03-23T04:40:16;8.30;99.90
23507;DHT22;11930;53.076;18.250;2023-03-23T04:42:48;8.30;99.90
23507;DHT22;11930;53.076;18.250;2023-03-23T04:45:36;8.30;99.90
23507;DHT22;11930;53.076;18.250;2023-03-23T04:48:04;8.30;99.90
23507;DHT22;11930;53.076;18.250;2023-03-23T04:50:47;8.30;99.90
23507;DHT22;11930;53.076;18.250;2023-03-23T04:53:21;8.30;99.90
23507;DHT22;11930;53.076;18.250;2023-03-23T04:55:48;8.40;99.90
23507;DHT22;11930;53.076;18.250;2023-03-23T04:58:16;8.50;99.90
23507;DHT22;11930;53.076;18.250;2023-03-23T05:01:12;8.50;99.90
23507;DHT22;11930;53.076;18.250;2023-03-23T05:03:53;8.60;99.90
23507;DHT22;11930;53.076;18.250;2023-03-23T05:06:20;8.60;99.90
23507;DHT22;11930;53.076;18.250;2023-03-23T05:08:46;8.70;99.90
23507;DHT22;11930;53.076;18.250;2023-03-23T05:11:14;8.80;99.90
23507;DHT22;11930;53.076;18.250;2023-03-23T05:13:42;8.80;99.90
23507;DHT22;11930;53.076;18.250;2023-03-23T05:16:10;8.90;99.90
23507;DHT22;11930;53.076;18.250;2023-03-23T05:18:38;9.00;99.90
23507;DHT22;11930;53.076;18.250;2023-03-23T05:21:07;9.10;99.90
23507;DHT22;11930;53.076;18.250;2023-03-23T05:23:37;9.20;99.90
23507;DHT22;11930;53.076;18.250;2023-03-23T05:26:15;9.30;99.90
23507;DHT22;11930;53.076;18.250;2023-03-23T05:28:41;9.30;99.90
23507;DHT22;11930;53.076;18.250;2023-03-23T05:31:19;9.40;99.90
23507;DHT22;11930;53.076;18.250;2023-03-23T05:33:45;9.40;99.90
23507;DHT22;11930;53.076;18.250;2023-03-23T05:36:32;9.40;99.90
23507;DHT22;11930;53.076;18.250;2023-03-23T05:39:07;9.50;99.90
23507;DHT22;11930;53.076;18.250;2023-03-23T05:41:58;9.60;99.90
23507;DHT22;11930;53.076;18.250;2023-03-23T05:44:30;9.60;99.90
23507;DHT22;11930;53.076;18.250;2023-03-23T05:46:59;9.60;99.90
23507;DHT22;11930;53.076;18.250;2023-03-23T05:49:25;9.70;99.90
23507;DHT22;11930;53.076;18.250;2023-03-23T05:51:54;9.70;99.90
23507;DHT22;11930;53.076;18.250;2023-03-23T05:54:21;9.80;99.90
23507;DHT22;11930;53.076;18.250;2023-03-23T05:56:48;9.80;99.90
23507;DHT22;11930;53.076;18.250;2023-03-23T05:59:53;9.90;99.90
23507;DHT22;11930;53.076;18.250;2023-03-23T06:02:24;10.00;99.90
23507;DHT22;11930;53.076;18.250;2023-03-23T06:04:52;10.10;99.90
23507;DHT22;11930;53.076;18.250;2023-03-23T06:07:27;10.20;99.90
23507;DHT22;11930;53.076;18.250;2023-03-23T06:09:59;10.20;99.90
23507;DHT22;11930;53.076;18.250;2023-03-23T06:12:26;10.30;99.90
23507;DHT22;11930;53.076;18.250;2023-03-23T06:15:08;10.40;99.90
23507;DHT22;11930;53.076;18.250;2023-03-23T06:17:54;10.50;99.90
23507;DHT22;11930;53.076;18.250;2023-03-23T06:20:25;10.60;99.90
23507;DHT22;11930;53.076;18.250;2023-03-23T06:22:53;10.70;99.90
23507;DHT22;11930;53.076;18.250;2023-03-23T06:25:26;10.90;99.90
23507;DHT22;11930;53.076;18.250;2023-03-23T06:27:53;10.90;99.90
23507;DHT22;11930;53.076;18.250;2023-03-23T06:30:20;10.90;99.90
23507;DHT22;11930;53.076;18.250;2023-03-23T06:32:46;11.00;99.90
23507;DHT22;11930;53.076;18.250;2023-03-23T06:35:14;11.00;99.90
23507;DHT22;11930;53.076;18.250;2023-03-23T06:37:59;11.10;99.90
23507;DHT22;11930;53.076;18.250;2023-03-23T06:40:56;11.10;99.90
23507;DHT22;11930;53.076;18.250;2023-03-23T06:43:25;11.10;99.90
23507;DHT22;11930;53.076;18.250;2023-03-23T06:46:12;11.20;99.90
23507;DHT22;11930;53.076;18.250;2023-03-23T06:48:41;11.30;99.90
23507;DHT22;11930;53.076;18.250;2023-03-23T06:51:10;11.30;99.90
23507;DHT22;11930;53.076;18.250;2023-03-23T06:53:39;11.40;99.90
23507;DHT22;11930;53.076;18.250;2023-03-23T06:56:09;11.50;99.90
23507;DHT22;11930;53.076;18.250;2023-03-23T06:58:36;11.50;99.90
23507;DHT22;11930;53.076;18.250;2023-03-23T07:01:03;11.60;99.90
23507;DHT22;11930;53.076;18.250;2023-03-23T07:03:35;11.70;99.90
23507;DHT22;11930;53.076;18.250;2023-03-23T07:06:03;12.00;99.90
23507;DHT22;11930;53.076;18.250;2023-03-23T07:08:34;12.00;99.90
23507;DHT22;11930;53.076;18.250;2023-03-23T07:11:00;12.20;99.90
23507;DHT22;11930;53.076;18.250;2023-03-23T07:13:28;12.40;99.90
23507;DHT22;11930;53.076;18.250;2023-03-23T07:15:59;12.60;99.90
23507;DHT22;11930;53.076;18.250;2023-03-23T07:18:26;12.80;99.90
23507;DHT22;11930;53.076;18.250;2023-03-23T07:20:54;12.80;99.90
23507;DHT22;11930;53.076;18.250;2023-03-23T07:23:28;12.80;99.90
23507;DHT22;11930;53.076;18.250;2023-03-23T07:25:59;12.80;99.90
23507;DHT22;11930;53.076;18.250;2023-03-23T07:28:32;12.80;99.90
23507;DHT22;11930;53.076;18.250;2023-03-23T07:31:05;12.90;99.90
23507;DHT22;11930;53.076;18.250;2023-03-23T07:33:33;12.90;99.90
23507;DHT22;11930;53.076;18.250;2023-03-23T07:36:01;13.00;99.90
23507;DHT22;11930;53.076;18.250;2023-03-23T07:38:29;13.00;99.90
23507;DHT22;11930;53.076;18.250;2023-03-23T07:40:57;13.20;99.90
23507;DHT22;11930;53.076;18.250;2023-03-23T07:43:25;13.40;99.90
23507;DHT22;11930;53.076;18.250;2023-03-23T07:46:31;13.80;99.90
23507;DHT22;11930;53.076;18.250;2023-03-23T07:49:08;14.40;99.90
23507;DHT22;11930;53.076;18.250;2023-03-23T07:51:40;15.20;99.90
23507;DHT22;11930;53.076;18.250;2023-03-23T07:54:09;15.90;99.90
23507;DHT22;11930;53.076;18.250;2023-03-23T07:56:57;16.50;99.90
23507;DHT22;11930;53.076;18.250;2023-03-23T07:59:31;16.90;95.30
23507;DHT22;11930;53.076;18.250;2023-03-23T08:01:58;16.90;94.90
23507;DHT22;11930;53.076;18.250;2023-03-23T08:04:42;16.80;93.60
23507;DHT22;11930;53.076;18.250;2023-03-23T08:07:42;16.60;93.80
23507;DHT22;11930;53.076;18.250;2023-03-23T08:10:27;16.50;94.20
23507;DHT22;11930;53.076;18.250;2023-03-23T08:13:29;16.50;93.60
23507;DHT22;11930;53.076;18.250;2023-03-23T08:16:10;16.70;92.40
23507;DHT22;11930;53.076;18.250;2023-03-23T08:18:51;16.60;92.40
23507;DHT22;11930;53.076;18.250;2023-03-23T08:21:43;16.60;92.70
23507;DHT22;11930;53.076;18.250;2023-03-23T08:24:45;16.50;92.60
23507;DHT22;11930;53.076;18.250;2023-03-23T08:27:38;16.60;93.10
23507;DHT22;11930;53.076;18.250;2023-03-23T08:30:19;16.80;91.80
23507;DHT22;11930;53.076;18.250;2023-03-23T08:33:09;17.10;90.80
23507;DHT22;11930;53.076;18.250;2023-03-23T08:35:57;17.40;89.60
23507;DHT22;11930;53.076;18.250;2023-03-23T08:38:43;17.40;87.00
23507;DHT22;11930;53.076;18.250;2023-03-23T08:41:30;17.40;88.00
23507;DHT22;11930;53.076;18.250;2023-03-23T08:44:18;17.40;86.50
23507;DHT22;11930;53.076;18.250;2023-03-23T08:46:57;17.40;86.00
23507;DHT22;11930;53.076;18.250;2023-03-23T08:49:42;17.50;88.10
23507;DHT22;11930;53.076;18.250;2023-03-23T08:52:28;17.60;85.80
23507;DHT22;11930;53.076;18.250;2023-03-23T08:55:13;17.60;84.70
23507;DHT22;11930;53.076;18.250;2023-03-23T08:57:52;17.60;83.80
23507;DHT22;11930;53.076;18.250;2023-03-23T09:00:48;17.40;83.80
23507;DHT22;11930;53.076;18.250;2023-03-23T09:03:37;17.30;83.60
23507;DHT22;11930;53.076;18.250;2023-03-23T09:06:20;17.20;85.30
23507;DHT22;11930;53.076;18.250;2023-03-23T09:08:46;17.20;86.40
23507;DHT22;11930;53.076;18.250;2023-03-23T09:11:12;17.10;85.40
23507;DHT22;11930;53.076;18.250;2023-03-23T09:13:39;17.10;85.30
23507;DHT22;11930;53.076;18.250;2023-03-23T09:16:06;17.20;85.40
23507;DHT22;11930;53.076;18.250;2023-03-23T09:18:32;17.20;86.10
23507;DHT22;11930;53.076;18.250;2023-03-23T09:20:59;17.20;86.50
23507;DHT22;11930;53.076;18.250;2023-03-23T09:23:26;17.20;87.00
23507;DHT22;11930;53.076;18.250;2023-03-23T09:25:53;17.50;86.70
23507;DHT22;11930;53.076;18.250;2023-03-23T09:28:19;17.90;85.40
23507;DHT22;11930;53.076;18.250;2023-03-23T09:30:46;18.20;83.80
23507;DHT22;11930;53.076;18.250;2023-03-23T09:33:13;18.50;82.10
23507;DHT22;11930;53.076;18.250;2023-03-23T09:35:40;18.50;80.10
23507;DHT22;11930;53.076;18.250;2023-03-23T09:38:09;18.50;80.40
23507;DHT22;11930;53.076;18.250;2023-03-23T09:40:46;18.50;80.60
23507;DHT22;11930;53.076;18.250;2023-03-23T09:46:08;18.50;80.70
23507;DHT22;11930;53.076;18.250;2023-03-23T09:48:50;18.40;80.10
23507;DHT22;11930;53.076;18.250;2023-03-23T09:54:26;18.20;81.10
23507;DHT22;11930;53.076;18.250;2023-03-23T09:56:54;18.10;80.60
23507;DHT22;11930;53.076;18.250;2023-03-23T10:02:04;18.00;81.40
23507;DHT22;11930;53.076;18.250;2023-03-23T10:04:41;17.90;81.10
23507;DHT22;11930;53.076;18.250;2023-03-23T10:07:21;17.70;81.10
23507;DHT22;11930;53.076;18.250;2023-03-23T10:09:51;17.60;81.60
23507;DHT22;11930;53.076;18.250;2023-03-23T10:12:42;17.40;81.20
23507;DHT22;11930;53.076;18.250;2023-03-23T10:15:26;17.20;82.40
23507;DHT22;11930;53.076;18.250;2023-03-23T10:28:37;16.70;85.20
23507;DHT22;11930;53.076;18.250;2023-03-23T10:31:03;16.60;86.70
23507;DHT22;11930;53.076;18.250;2023-03-23T10:33:56;16.50;86.60
23507;DHT22;11930;53.076;18.250;2023-03-23T10:36:27;16.50;87.80
23507;DHT22;11930;53.076;18.250;2023-03-23T10:39:11;16.50;87.10
23507;DHT22;11930;53.076;18.250;2023-03-23T10:41:38;16.50;88.00
23507;DHT22;11930;53.076;18.250;2023-03-23T10:44:15;16.50;88.90
23507;DHT22;11930;53.076;18.250;2023-03-23T10:46:53;16.40;88.00
23507;DHT22;11930;53.076;18.250;2023-03-23T10:49:32;16.30;89.20
23507;DHT22;11930;53.076;18.250;2023-03-23T10:54:57;16.10;92.30
23507;DHT22;11930;53.076;18.250;2023-03-23T10:57:29;16.00;93.30
23507;DHT22;11930;53.076;18.250;2023-03-23T11:02:46;15.70;93.30
23507;DHT22;11930;53.076;18.250;2023-03-23T11:05:21;15.60;93.90
23507;DHT22;11930;53.076;18.250;2023-03-23T11:07:53;15.50;94.80
23507;DHT22;11930;53.076;18.250;2023-03-23T11:10:37;15.40;96.00
23507;DHT22;11930;53.076;18.250;2023-03-23T11:13:03;15.20;96.60
23507;DHT22;11930;53.076;18.250;2023-03-23T11:15:36;15.10;97.00
23507;DHT22;11930;53.076;18.250;2023-03-23T11:18:05;15.00;98.30
23507;DHT22;11930;53.076;18.250;2023-03-23T11:20:38;15.00;99.80
23507;DHT22;11930;53.076;18.250;2023-03-23T11:23:27;14.90;99.90
23507;DHT22;11930;53.076;18.250;2023-03-23T11:26:00;14.80;99.90
23507;DHT22;11930;53.076;18.250;2023-03-23T11:28:33;14.70;99.90
23507;DHT22;11930;53.076;18.250;2023-03-23T11:31:03;14.70;99.90
23507;DHT22;11930;53.076;18.250;2023-03-23T11:34:14;14.70;99.90
23507;DHT22;11930;53.076;18.250;2023-03-23T11:36:57;14.70;99.90
23507;DHT22;11930;53.076;18.250;2023-03-23T11:39:32;14.70;99.90
23507;DHT22;11930;53.076;18.250;2023-03-23T11:42:13;14.70;99.90
23507;DHT22;11930;53.076;18.250;2023-03-23T11:44:43;14.70;99.90
23507;DHT22;11930;53.076;18.250;2023-03-23T11:47:34;14.80;99.90
23507;DHT22;11930;53.076;18.250;2023-03-23T11:50:34;14.80;99.90
23507;DHT22;11930;53.076;18.250;2023-03-23T11:53:13;15.20;99.90
23507;DHT22;11930;53.076;18.250;2023-03-23T11:58:13;15.30;99.90
23507;DHT22;11930;53.076;18.250;2023-03-23T12:00:49;15.40;99.90
23507;DHT22;11930;53.076;18.250;2023-03-23T12:06:39;15.40;99.90
23507;DHT22;11930;53.076;18.250;2023-03-23T12:12:11;15.30;99.90
23507;DHT22;11930;53.076;18.250;2023-03-23T12:15:03;15.20;99.90
23507;DHT22;11930;53.076;18.250;2023-03-23T12:21:14;15.00;99.90
23507;DHT22;11930;53.076;18.250;2023-03-23T12:26:07;14.80;99.90
23507;DHT22;11930;53.076;18.250;2023-03-23T12:28:58;14.80;99.90
23507;DHT22;11930;53.076;18.250;2023-03-23T12:31:55;14.80;99.90
23507;DHT22;11930;53.076;18.250;2023-03-23T12:34:50;14.90;99.90
23507;DHT22;11930;53.076;18.250;2023-03-23T12:37:42;15.00;99.90
23507;DHT22;11930;53.076;18.250;2023-03-23T12:57:39;15.40;99.90
23507;DHT22;11930;53.076;18.250;2023-03-23T13:00:24;15.40;99.90
23507;DHT22;11930;53.076;18.250;2023-03-23T13:03:02;15.30;99.90
23507;DHT22;11930;53.076;18.250;2023-03-23T13:05:41;15.30;99.90
23507;DHT22;11930;53.076;18.250;2023-03-23T13:08:17;15.10;99.90
23507;DHT22;11930;53.076;18.250;2023-03-23T13:10:54;15.10;99.90
23507;DHT22;11930;53.076;18.250;2023-03-23T13:13:24;15.00;99.90
23507;DHT22;11930;53.076;18.250;2023-03-23T13:22:07;14.90;99.90
23507;DHT22;11930;53.076;18.250;2023-03-23T13:24:39;14.80;99.90
23507;DHT22;11930;53.076;18.250;2023-03-23T13:27:09;14.70;99.90
23507;DHT22;11930;53.076;18.250;2023-03-23T13:29:44;14.70;99.90
23507;DHT22;11930;53.076;18.250;2023-03-23T13:32:15;14.70;99.90
23507;DHT22;11930;53.076;18.250;2023-03-23T13:34:42;14.70;99.90
23507;DHT22;11930;53.076;18.250;2023-03-23T13:37:22;14.70;99.90
23507;DHT22;11930;53.076;18.250;2023-03-23T13:39:55;14.70;99.90
23507;DHT22;11930;53.076;18.250;2023-03-23T13:42:24;14.80;99.90
23507;DHT22;11930;53.076;18.250;2023-03-23T13:50:01;14.80;99.90
23507;DHT22;11930;53.076;18.250;2023-03-23T13:55:20;14.80;99.90
23507;DHT22;11930;53.076;18.250;2023-03-23T14:05:33;14.80;99.90
23507;DHT22;11930;53.076;18.250;2023-03-23T14:08:22;14.80;99.90
23507;DHT22;11930;53.076;18.250;2023-03-23T14:10:53;14.80;99.90
23507;DHT22;11930;53.076;18.250;2023-03-23T14:16:05;14.90;99.90
23507;DHT22;11930;53.076;18.250;2023-03-23T14:18:41;14.90;99.90
23507;DHT22;11930;53.076;18.250;2023-03-23T14:21:22;14.90;99.90
23507;DHT22;11930;53.076;18.250;2023-03-23T14:23:49;14.90;99.90
23507;DHT22;11930;53.076;18.250;2023-03-23T14:26:20;14.90;99.90
23507;DHT22;11930;53.076;18.250;2023-03-23T14:28:51;14.90;99.90
23507;DHT22;11930;53.076;18.250;2023-03-23T14:31:24;14.90;99.90
23507;DHT22;11930;53.076;18.250;2023-03-23T14:33:52;14.80;99.90
23507;DHT22;11930;53.076;18.250;2023-03-23T14:36:28;14.80;99.90
23507;DHT22;11930;53.076;18.250;2023-03-23T14:41:23;14.80;99.90
23507;DHT22;11930;53.076;18.250;2023-03-23T14:43:56;14.80;99.90
23507;DHT22;11930;53.076;18.250;2023-03-23T14:46:24;14.70;99.90
23507;DHT22;11930;53.076;18.250;2023-03-23T14:48:51;14.60;99.90
23507;DHT22;11930;53.076;18.250;2023-03-23T14:51:19;14.60;99.90
23507;DHT22;11930;53.076;18.250;2023-03-23T14:53:45;14.60;99.90
23507;DHT22;11930;53.076;18.250;2023-03-23T14:56:13;14.60;99.90
23507;DHT22;11930;53.076;18.250;2023-03-23T14:58:48;14.50;99.90
23507;DHT22;11930;53.076;18.250;2023-03-23T15:01:23;14.50;99.90
23507;DHT22;11930;53.076;18.250;2023-03-23T15:04:03;14.50;99.90
23507;DHT22;11930;53.076;18.250;2023-03-23T15:06:33;14.50;99.90
23507;DHT22;11930;53.076;18.250;2023-03-23T15:09:03;14.50;99.90
23507;DHT22;11930;53.076;18.250;2023-03-23T15:11:36;14.40;99.90
23507;DHT22;11930;53.076;18.250;2023-03-23T15:14:19;14.40;99.90
23507;DHT22;11930;53.076;18.250;2023-03-23T15:16:47;14.40;99.90
23507;DHT22;11930;53.076;18.250;2023-03-23T15:19:24;14.40;99.90
23507;DHT22;11930;53.076;18.250;2023-03-23T15:21:52;14.40;99.90
23507;DHT22;11930;53.076;18.250;2023-03-23T15:27:23;14.40;99.90
23507;DHT22;11930;53.076;18.250;2023-03-23T15:29:55;14.40;99.90
23507;DHT22;11930;53.076;18.250;2023-03-23T15:32:38;14.40;99.90
23507;DHT22;11930;53.076;18.250;2023-03-23T15:35:16;14.40;99.90
23507;DHT22;11930;53.076;18.250;2023-03-23T15:37:48;14.40;99.90
23507;DHT22;11930;53.076;18.250;2023-03-23T15:40:20;14.40;99.90
23507;DHT22;11930;53.076;18.250;2023-03-23T15:42:50;14.40;99.90
23507;DHT22;11930;53.076;18.250;2023-03-23T15:45:30;14.40;99.90
23507;DHT22;11930;53.076;18.250;2023-03-23T15:48:10;14.40;99.90
23507;DHT22;11930;53.076;18.250;2023-03-23T15:50:42;14.50;99.90
23507;DHT22;11930;53.076;18.250;2023-03-23T15:55:47;14.60;99.90
23507;DHT22;11930;53.076;18.250;2023-03-23T15:58:14;14.60;99.90
23507;DHT22;11930;53.076;18.250;2023-03-23T16:00:41;14.60;99.90
23507;DHT22;11930;53.076;18.250;2023-03-23T16:03:12;14.60;99.90
23507;DHT22;11930;53.076;18.250;2023-03-23T16:05:39;14.50;99.90
23507;DHT22;11930;53.076;18.250;2023-03-23T16:08:10;14.40;99.90
23507;DHT22;11930;53.076;18.250;2023-03-23T16:10:36;14.40;99.90
23507;DHT22;11930;53.076;18.250;2023-03-23T16:13:03;14.30;99.90
23507;DHT22;11930;53.076;18.250;2023-03-23T16:15:30;14.30;99.90
23507;DHT22;11930;53.076;18.250;2023-03-23T16:17:57;14.30;99.90
23507;DHT22;11930;53.076;18.250;2023-03-23T16:20:24;14.20;99.90
23507;DHT22;11930;53.076;18.250;2023-03-23T16:22:51;14.20;99.90
23507;DHT22;11930;53.076;18.250;2023-03-23T16:25:18;14.20;99.90
23507;DHT22;11930;53.076;18.250;2023-03-23T16:27:47;14.20;99.90
23507;DHT22;11930;53.076;18.250;2023-03-23T16:30:20;14.10;99.90
23507;DHT22;11930;53.076;18.250;2023-03-23T16:32:47;14.10;99.90
23507;DHT22;11930;53.076;18.250;2023-03-23T16:35:14;14.10;99.90
23507;DHT22;11930;53.076;18.250;2023-03-23T16:37:55;14.00;99.90
23507;DHT22;11930;53.076;18.250;2023-03-23T16:40:23;14.00;99.90
23507;DHT22;11930;53.076;18.250;2023-03-23T16:42:49;13.90;99.90
23507;DHT22;11930;53.076;18.250;2023-03-23T16:45:16;13.90;99.90
23507;DHT22;11930;53.076;18.250;2023-03-23T16:47:43;13.90;99.90
23507;DHT22;11930;53.076;18.250;2023-03-23T16:50:13;13.90;99.90
23507;DHT22;11930;53.076;18.250;2023-03-23T16:52:41;13.90;99.90
23507;DHT22;11930;53.076;18.250;2023-03-23T16:55:09;13.80;99.90
23507;DHT22;11930;53.076;18.250;2023-03-23T16:57:36;13.80;99.90
23507;DHT22;11930;53.076;18.250;2023-03-23T17:00:05;13.80;99.90
23507;DHT22;11930;53.076;18.250;2023-03-23T17:02:37;13.80;99.90
23507;DHT22;11930;53.076;18.250;2023-03-23T17:05:05;13.70;99.90
23507;DHT22;11930;53.076;18.250;2023-03-23T17:07:31;13.70;99.90
23507;DHT22;11930;53.076;18.250;2023-03-23T17:09:58;13.70;99.90
23507;DHT22;11930;53.076;18.250;2023-03-23T17:12:30;13.60;99.90
23507;DHT22;11930;53.076;18.250;2023-03-23T17:14:57;13.60;99.90
23507;DHT22;11930;53.076;18.250;2023-03-23T17:17:23;13.50;99.90
23507;DHT22;11930;53.076;18.250;2023-03-23T17:19:50;13.40;99.90
23507;DHT22;11930;53.076;18.250;2023-03-23T17:22:16;13.40;99.90
23507;DHT22;11930;53.076;18.250;2023-03-23T17:24:43;13.40;99.90
23507;DHT22;11930;53.076;18.250;2023-03-23T17:27:09;13.30;99.90
23507;DHT22;11930;53.076;18.250;2023-03-23T17:29:36;13.20;99.90
23507;DHT22;11930;53.076;18.250;2023-03-23T17:32:02;13.20;99.90
23507;DHT22;11930;53.076;18.250;2023-03-23T17:34:29;13.10;99.90
23507;DHT22;11930;53.076;18.250;2023-03-23T17:36:55;13.00;99.90
23507;DHT22;11930;53.076;18.250;2023-03-23T17:39:21;13.00;99.90
23507;DHT22;11930;53.076;18.250;2023-03-23T17:41:47;13.00;99.90
23507;DHT22;11930;53.076;18.250;2023-03-23T17:44:20;12.90;99.90
23507;DHT22;11930;53.076;18.250;2023-03-23T17:46:58;12.90;99.90
23507;DHT22;11930;53.076;18.250;2023-03-23T17:49:26;12.90;99.90
23507;DHT22;11930;53.076;18.250;2023-03-23T17:51:56;12.80;99.90
23507;DHT22;11930;53.076;18.250;2023-03-23T17:56:54;12.70;99.90
23507;DHT22;11930;53.076;18.250;2023-03-23T17:59:25;12.70;99.90
23507;DHT22;11930;53.076;18.250;2023-03-23T18:01:52;12.70;99.90